createdAt,value
2023-05-23T05:00:20.436Z,16.10
2023-05-23T05:05:24.830Z,16.10
2023-05-23T05:10:28.537Z,16.30
2023-05-23T05:15:33.636Z,16.30
2023-05-23T05:20:39.284Z,16.40
2023-05-23T05:25:43.302Z,16.40
2023-05-23T05:30:54.308Z,16.50
2023-05-23T05:35:58.398Z,16.60
2023-05-23T05:41:02.293Z,16.90
2023-05-23T05:46:08.388Z,16.70
2023-05-23T05:51:12.255Z,16.80
2023-05-23T05:56:17.002Z,16.80
2023-05-23T06:01:22.054Z,16.90
2023-05-23T06:06:26.398Z,17.00
2023-05-23T06:11:30.193Z,17.10
2023-05-23T06:16:35.839Z,17.10
2023-05-23T06:21:39.961Z,17.20
2023-05-23T06:26:43.793Z,17.20
2023-05-23T06:31:48.793Z,16.70
2023-05-23T06:36:52.381Z,17.30
2023-05-23T06:41:57.171Z,17.30
2023-05-23T06:47:02.261Z,17.30
2023-05-23T06:52:06.362Z,17.40
2023-05-23T06:57:10.159Z,17.40
2023-05-23T07:02:15.507Z,17.50
2023-05-23T07:07:20.067Z,17.50
2023-05-23T07:12:23.758Z,17.60
2023-05-23T07:17:30.282Z,17.80
2023-05-23T07:22:34.577Z,17.80
2023-05-23T07:27:38.341Z,17.90
2023-05-23T07:32:44.460Z,17.90
2023-05-23T07:37:50.315Z,17.90
2023-05-23T07:42:55.856Z,17.90
2023-05-23T07:48:00.844Z,18.00
2023-05-23T07:53:06.539Z,18.00
2023-05-23T07:58:10.530Z,18.00
2023-05-23T08:03:15.623Z,18.20
2023-05-23T08:08:22.649Z,18.40
2023-05-23T08:13:26.742Z,18.70
2023-05-23T08:18:36.961Z,19.00
2023-05-23T08:23:42.414Z,19.30
2023-05-23T08:28:46.349Z,19.50
2023-05-23T08:33:52.064Z,19.80
2023-05-23T08:38:57.825Z,20.20
2023-05-23T08:44:02.092Z,20.50
2023-05-23T08:49:09.876Z,20.70
2023-05-23T08:54:14.263Z,20.70
2023-05-23T08:59:17.910Z,20.80
2023-05-23T09:04:23.194Z,21.10
2023-05-23T09:09:29.684Z,21.10
2023-05-23T09:14:34.259Z,21.20
2023-05-23T09:19:44.103Z,21.20
2023-05-23T09:24:53.031Z,21.30
2023-05-23T09:29:57.498Z,21.40
2023-05-23T09:35:04.930Z,21.80
2023-05-23T09:40:11.336Z,22.10
2023-05-23T09:45:16.955Z,22.30
2023-05-23T09:50:22.722Z,22.30
2023-05-23T09:55:27.569Z,22.30
2023-05-23T10:00:33.176Z,22.10
2023-05-23T10:05:42.086Z,21.80
2023-05-23T10:11:34.161Z,21.50
2023-05-23T10:16:45.564Z,21.40
2023-05-23T10:21:55.790Z,21.30
2023-05-23T10:26:59.982Z,21.10
2023-05-23T10:32:04.626Z,21.00
2023-05-23T10:37:12.533Z,20.90
2023-05-23T10:42:20.557Z,20.80
2023-05-23T10:47:28.798Z,20.80
2023-05-23T10:52:41.250Z,21.10
2023-05-23T10:57:45.894Z,21.20
2023-05-23T11:02:56.447Z,21.20
2023-05-23T11:08:13.835Z,21.50
2023-05-23T11:13:17.522Z,22.40
2023-05-23T11:18:25.616Z,23.00
2023-05-23T11:23:42.002Z,23.40
2023-05-23T11:28:57.517Z,23.60
2023-05-23T11:34:02.780Z,24.20
2023-05-23T11:39:08.717Z,25.10
2023-05-23T11:44:15.688Z,26.00
2023-05-23T11:49:19.518Z,26.90
2023-05-23T11:54:26.126Z,27.50
2023-05-23T11:59:29.953Z,27.60
2023-05-23T12:04:35.577Z,27.90
2023-05-23T12:09:47.209Z,27.90
2023-05-23T12:14:50.810Z,27.80
2023-05-23T12:19:54.749Z,27.70
2023-05-23T12:24:59.816Z,27.60
2023-05-23T12:30:09.661Z,27.40
2023-05-23T12:35:15.239Z,27.10
2023-05-23T12:40:21.020Z,27.10
2023-05-23T12:45:26.206Z,26.90
2023-05-23T12:50:29.940Z,26.80
2023-05-23T12:55:34.993Z,26.90
2023-05-23T13:00:38.618Z,27.20
2023-05-23T13:05:42.389Z,27.70
2023-05-23T13:10:47.446Z,28.40
2023-05-23T13:15:51.799Z,28.90
2023-05-23T13:20:55.747Z,29.10
2023-05-23T13:26:00.881Z,29.50
2023-05-23T13:31:04.659Z,29.40
2023-05-23T13:36:08.888Z,29.50
2023-05-23T13:41:13.815Z,29.50
2023-05-23T13:46:17.464Z,29.60
2023-05-23T13:51:21.144Z,29.50
2023-05-23T13:56:26.182Z,29.50
2023-05-23T14:01:30.005Z,29.10
2023-05-23T14:11:38.897Z,28.50
2023-05-23T14:16:42.537Z,28.50
2023-05-23T14:21:46.270Z,28.50
2023-05-23T14:26:51.257Z,28.00
2023-05-23T14:31:54.984Z,27.30
2023-05-23T14:36:58.665Z,26.80
2023-05-23T14:42:03.863Z,26.60
2023-05-23T14:47:07.729Z,26.30
2023-05-23T14:52:12.687Z,26.10
2023-05-23T14:57:17.692Z,26.00
2023-05-23T15:02:21.448Z,26.00
2023-05-23T15:07:25.110Z,26.00
2023-05-23T15:12:30.085Z,26.20
2023-05-23T15:17:34.968Z,26.00
2023-05-23T15:22:40.030Z,27.00
2023-05-23T15:27:45.719Z,25.70
2023-05-23T15:32:49.528Z,25.50
2023-05-23T15:37:53.131Z,25.40
2023-05-23T15:42:58.083Z,25.20
2023-05-23T15:48:01.765Z,24.90
2023-05-23T15:53:05.885Z,24.70
2023-05-23T15:58:11.285Z,24.40
2023-05-23T16:03:14.963Z,24.10
2023-05-23T16:08:18.673Z,23.90
2023-05-23T16:13:23.602Z,23.70
2023-05-23T16:18:27.268Z,23.70
2023-05-23T16:23:30.909Z,23.70
2023-05-23T16:28:35.893Z,23.50
2023-05-23T16:33:39.474Z,23.40
2023-05-23T16:43:48.474Z,23.10
2023-05-23T16:48:52.035Z,23.00
2023-05-23T16:53:55.686Z,22.80
2023-05-23T16:59:00.872Z,22.50
2023-05-23T17:04:05.560Z,22.30
2023-05-23T17:09:09.176Z,22.10
2023-05-23T17:14:14.267Z,22.00
2023-05-23T17:19:18.022Z,21.70
2023-05-23T17:24:21.545Z,21.50
2023-05-23T17:29:27.158Z,21.40
2023-05-23T17:34:30.747Z,21.10
2023-05-23T17:39:34.453Z,20.90
2023-05-23T17:44:40.250Z,20.70
2023-05-23T17:49:43.849Z,20.60
2023-05-23T17:54:47.523Z,20.50
2023-05-23T17:59:52.476Z,20.30
2023-05-23T18:04:56.554Z,20.10
2023-05-23T18:10:00.660Z,19.90
2023-05-23T18:15:07.514Z,19.70
2023-05-23T18:20:12.720Z,19.60
2023-05-23T18:25:19.561Z,19.50
2023-05-23T18:30:24.530Z,19.40
2023-05-23T18:35:28.171Z,19.30
2023-05-23T18:40:31.737Z,19.30
2023-05-23T18:45:36.930Z,19.10
2023-05-23T18:50:40.669Z,19.00
2023-05-23T18:55:44.676Z,18.90
2023-05-23T19:00:49.971Z,18.70
2023-05-23T19:05:53.574Z,18.50
2023-05-23T19:10:57.208Z,18.40
2023-05-23T19:16:02.163Z,18.30
2023-05-23T19:21:05.750Z,18.20
2023-05-23T19:26:10.212Z,18.10
2023-05-23T19:31:15.015Z,17.90
2023-05-23T19:36:18.635Z,17.80
2023-05-23T19:41:22.412Z,17.80
2023-05-23T19:46:28.904Z,17.70
2023-05-23T19:51:32.818Z,17.60
2023-05-23T19:56:36.532Z,17.50
2023-05-23T20:01:41.503Z,17.40
2023-05-23T20:06:45.055Z,17.30
2023-05-23T20:11:48.650Z,17.30
2023-05-23T20:16:54.002Z,17.20
2023-05-23T20:21:57.757Z,17.10
2023-05-23T20:27:01.373Z,17.10
2023-05-23T20:32:07.447Z,16.90
2023-05-23T20:37:13.680Z,16.90
2023-05-23T20:42:17.460Z,16.80
2023-05-23T20:47:22.403Z,16.80
2023-05-23T20:52:25.998Z,16.70
2023-05-23T21:02:35.389Z,16.50
2023-05-23T21:07:39.508Z,16.50
2023-05-23T21:12:49.280Z,16.50
2023-05-23T21:17:54.429Z,16.50
2023-05-23T21:22:58.399Z,16.50
2023-05-23T21:28:01.968Z,16.40
2023-05-23T21:33:06.990Z,16.30
2023-05-23T21:38:10.536Z,16.30
2023-05-23T21:43:14.178Z,16.30
2023-05-23T21:48:19.100Z,16.20
2023-05-23T21:53:22.683Z,16.10
2023-05-23T21:58:26.290Z,16.00
2023-05-23T22:03:31.363Z,15.80
2023-05-23T22:08:35.148Z,15.80
2023-05-23T22:23:52.929Z,15.70
